Paya Lebar, Paya Lebar Air Base (WSAP)

NamePaya Lebar Air Base
CityPaya Lebar
CountrySingapore
ICAOWSAP
IATAQPG
Altitude20 m
CoordinatesGoogle Map
Live Air TrafficLiveATC.net
METARWSAP 251700Z 04004KT 9999 FEW016 BKN300 28/26 Q1010
2020-04-25 17:00:00 Wind: North-Northeast (40°) 2.06 m/s - Visibility: > 10000 m - Temperature: 28 °C - Dew point: 26 °C - Humidity: 88.9% - Pressure: 1010 hPa
Statistics

The table below shows the detailed information of all flights to/from Paya Lebar, Paya Lebar Air Base (WSAP).